Flight Track Log - Related Links

Times and Time Zones

All times are in EDT time to prevent confusion due to time zone crossing. See the N1809M flight status page for this flight to view local times or setup timezone preferences in your user account.

Time Position Orientation Groundspeed Altitude Reporting Facility
EDT Latitude Longitude Course Direction KTS MPH feet Rate Location/Type
Sun 01:20:26 PM 39.5611 -84.2417 176° South 133 153 3,300  Level Indianapolis Center
Sun 01:21:57 PM 39.5047 -84.2369 176° South 145 167 4,100 300 Climbing Indianapolis Center
Sun 01:22:46 PM 39.4675 -84.2303 172° South 165 190 4,000 103 Descending Indianapolis Center
Sun 01:23:53 PM 39.4194 -84.2272 177° South 164 189 4,300 516 Climbing Indianapolis Center
Sun 01:24:54 PM 39.3833 -84.2100 160° South 135 155 5,100 689 Climbing Indianapolis Center
Sun 01:25:55 PM 39.3569 -84.1808 139° Southeast 122 140 5,700 639 Climbing Indianapolis Center
Sun 01:26:56 PM 39.3281 -84.1569 147° Southeast 124 143 6,400 672 Climbing Indianapolis Center
Sun 01:27:51 PM 39.3072 -84.1297 135° Southeast 114 131 7,000 678 Climbing Indianapolis Center
Sun 01:28:51 PM 39.2792 -84.1022 143° Southeast 120 138 7,700 629 Climbing Indianapolis Center
Sun 01:29:55 PM 39.2578 -84.0703 131° Southeast 120 138 8,300 590 Climbing Indianapolis Center
Sun 01:30:53 PM 39.2317 -84.0342 133° Southeast 127 146 8,900 387 Climbing Indianapolis Center
Sun 01:31:59 PM 39.2064 -83.9914 127° Southeast 140 161 9,100 94 Climbing Indianapolis Center
Sun 01:33:01 PM 39.1803 -83.9422 124° Southeast 165 190 9,100  Level Indianapolis Center
Sun 01:34:03 PM 39.1436 -83.9019 140° Southeast 171 197 9,100  Level Indianapolis Center
Sun 01:35:05 PM 39.1089 -83.8558 134° Southeast 179 206 9,100  Level Indianapolis Center
Sun 01:36:07 PM 39.0697 -83.8050 135° Southeast 178 205 9,100  Level Indianapolis Center
Sun 01:37:09 PM 39.0336 -83.7617 137° Southeast 178 205 9,100  Level Indianapolis Center
Sun 01:38:11 PM 38.9978 -83.7158 135° Southeast 179 206 9,100  Level Indianapolis Center
Sun 01:39:13 PM 38.9611 -83.6717 137° Southeast 180 207 9,100  Level Indianapolis Center
Sun 01:40:15 PM 38.9247 -83.6269 136° Southeast 181 208 9,100  Level Indianapolis Center
Sun 01:41:17 PM 38.8856 -83.5789 136° Southeast 183 211 9,100  Level Indianapolis Center
Sun 01:43:21 PM 38.8086 -83.4806 135° Southeast 180 207 9,100  Level Indianapolis Center
Sun 01:44:23 PM 38.7736 -83.4372 136° Southeast 177 204 9,100  Level Indianapolis Center
Sun 01:45:25 PM 38.7361 -83.3939 138° Southeast 179 206 9,100  Level Indianapolis Center
Sun 01:46:27 PM 38.7008 -83.3492 135° Southeast 178 205 9,100  Level Indianapolis Center
Sun 01:47:29 PM 38.6658 -83.3047 135° Southeast 177 204 9,100  Level Indianapolis Center
Sun 01:48:31 PM 38.6303 -83.2603 136° Southeast 178 205 9,100  Level Indianapolis Center
Sun 01:49:33 PM 38.5894 -83.2097 136° Southeast 176 203 9,100  Level Indianapolis Center
Sun 01:50:35 PM 38.5531 -83.1681 138° Southeast 175 201 9,100  Level Indianapolis Center
Sun 01:51:37 PM 38.5169 -83.1239 136° Southeast 178 205 9,100  Level Indianapolis Center
Sun 01:52:38 PM 38.4808 -83.0803 137° Southeast 178 205 9,100  Level Indianapolis Center
Sun 01:53:40 PM 38.4483 -83.0339 132° Southeast 177 204 9,100  Level Indianapolis Center
Sun 01:54:42 PM 38.4153 -82.9900 134° Southeast 173 199 9,100  Level Indianapolis Center
Sun 01:55:44 PM 38.3681 -82.9561 151° Southeast 173 199 9,100 -48 Level Indianapolis Center
Sun 01:56:46 PM 38.3339 -82.9100 133° Southeast 176 203 9,000  Descending Indianapolis Center
Sun 01:57:48 PM 38.3025 -82.8644 131° Southeast 173 199 9,100 242 Climbing Indianapolis Center
Sun 01:58:50 PM 38.2703 -82.8203 133° Southeast 170 196 9,500 387 Climbing Indianapolis Center
Sun 01:59:52 PM 38.2375 -82.7864 141° Southeast 159 183 9,900 387 Climbing Indianapolis Center
Sun 02:00:54 PM 38.2072 -82.7514 138° Southeast 152 175 10,300 488 Climbing Indianapolis Center
Sun 02:01:55 PM 38.1711 -82.7094 138° Southeast 149 171 10,900 390 Climbing Indianapolis Center
Sun 02:02:57 PM 38.1417 -82.6722 135° Southeast 149 171 11,100 97 Climbing Indianapolis Center
Sun 02:03:59 PM 38.1075 -82.6350 139° Southeast 156 180 11,100  Level Indianapolis Center
Sun 02:05:01 PM 38.0722 -82.5911 136° Southeast 168 193 11,100  Level Indianapolis Center
Sun 02:06:03 PM 38.0378 -82.5486 136° Southeast 172 198 11,100 48 Level Indianapolis Center
Sun 02:07:05 PM 37.9964 -82.5136 146° Southeast 177 204 11,200  Climbing Indianapolis Center
Sun 02:08:07 PM 37.9472 -82.4736 147° Southeast 179 206 11,100 -48 Descending Indianapolis Center
Sun 02:09:09 PM 37.9053 -82.4414 149° Southeast 177 204 11,100  Level Indianapolis Center
Sun 02:10:11 PM 37.8617 -82.4056 147° Southeast 181 208 11,100  Level Indianapolis Center
Sun 02:11:13 PM 37.8242 -82.3658 140° Southeast 179 206 11,100  Level Indianapolis Center
Sun 02:12:15 PM 37.7919 -82.3147 129° Southeast 183 211 11,100  Level Indianapolis Center
Sun 02:13:17 PM 37.7583 -82.2681 132° Southeast 181 208 11,100  Level Indianapolis Center
Sun 02:14:19 PM 37.7136 -82.2206 140° Southeast 180 207 11,100  Level Indianapolis Center
Sun 02:15:20 PM 37.6769 -82.1783 138° Southeast 178 205 11,100  Level Indianapolis Center
Sun 02:16:22 PM 37.6411 -82.1328 135° Southeast 181 208 11,100  Level Indianapolis Center
Sun 02:17:24 PM 37.6050 -82.0892 136° Southeast 181 208 11,100  Level Indianapolis Center
Sun 02:18:26 PM 37.5681 -82.0472 138° Southeast 179 206 11,100 48 Level Indianapolis Center
Sun 02:19:28 PM 37.5308 -82.0014 136° Southeast 185 213 11,200  Climbing Indianapolis Center
Sun 02:20:30 PM 37.4889 -81.9483 135° Southeast 184 212 11,100 -48 Descending Indianapolis Center
Sun 02:21:32 PM 37.4489 -81.9050 139° Southeast 187 215 11,100  Level Indianapolis Center
Sun 02:22:34 PM 37.4100 -81.8617 138° Southeast 187 215 11,100  Level Indianapolis Center
Sun 02:23:36 PM 37.3714 -81.8164 137° Southeast 188 216 11,100  Level Indianapolis Center
Sun 02:24:38 PM 37.3339 -81.7697 135° Southeast 188 216 11,100  Level Indianapolis Center
Sun 02:25:39 PM 37.2956 -81.7250 137° Southeast 188 216 11,100  Level Indianapolis Center
Sun 02:26:41 PM 37.2486 -81.6703 137° Southeast 195 224 11,100  Level Indianapolis Center
Sun 02:27:43 PM 37.2108 -81.6250 136° Southeast 190 219 11,100  Level Indianapolis Center
Sun 02:28:45 PM 37.1717 -81.5797 137° Southeast 190 219 11,100 48 Level Indianapolis Center
Sun 02:29:47 PM 37.1336 -81.5344 137° Southeast 190 219 11,200  Climbing Indianapolis Center
Sun 02:30:49 PM 37.0953 -81.4872 135° Southeast 193 222 11,100 -48 Descending Indianapolis Center
Sun 02:31:51 PM 37.0547 -81.4417 138° Southeast 194 223 11,100  Level Indianapolis Center
Sun 02:32:53 PM 37.0100 -81.3900 137° Southeast 195 224 11,100  Level Indianapolis Center
Sun 02:33:30 PM 36.9819 -81.3597 139° Southeast 194 223 11,100  Level Atlanta Center
Sun 02:34:30 PM 36.9458 -81.3194 138° Southeast 199 229 11,100 50 Level Atlanta Center
Sun 02:35:30 PM 36.9072 -81.2717 135° Southeast 199 229 11,200  Climbing Atlanta Center
Sun 02:36:30 PM 36.8686 -81.2261 137° Southeast 199 229 11,100 -300 Descending Atlanta Center
Sun 02:37:30 PM 36.8236 -81.1708 135° Southeast 199 229 10,600 -450 Descending Atlanta Center
Sun 02:38:30 PM 36.7825 -81.1178 134° Southeast 204 235 10,200 -350 Descending Atlanta Center
Sun 02:39:30 PM 36.7442 -81.0831 144° Southeast 204 235 9,900 -350 Descending Atlanta Center
Sun 02:40:30 PM 36.7014 -81.0303 135° Southeast 204 235 9,500 -400 Descending Atlanta Center
Sun 02:41:30 PM 36.6583 -80.9825 138° Southeast 197 227 9,100 -250 Descending Atlanta Center
Sun 02:42:30 PM 36.6175 -80.9350 137° Southeast 197 227 9,000 -200 Descending Atlanta Center
Sun 02:43:30 PM 36.5789 -80.8925 139° Southeast 192 221 8,700 -350 Descending Atlanta Center
Sun 02:44:30 PM 36.5358 -80.8425 137° Southeast 197 227 8,300 -347 Descending Atlanta Center
Sun 02:45:31 PM 36.4950 -80.7953 137° Southeast 197 227 8,000 -300 Descending Atlanta Center
Sun 02:46:30 PM 36.4583 -80.7450 132° Southeast 197 227 7,700 -353 Descending Atlanta Center
Sun 02:47:30 PM 36.4339 -80.6867 117° Southeast 192 221 7,300 -400 Descending Atlanta Center
Sun 02:48:30 PM 36.3950 -80.6367 134° Southeast 192 221 6,900 -200 Descending Atlanta Center
Sun 02:49:30 PM 36.3567 -80.6125 153° Southeast 182 209 6,900 50 Level Atlanta Center
Sun 02:50:30 PM 36.3261 -80.5675 130° Southeast 171 197 7,000 50 Climbing Atlanta Center
Sun 02:51:30 PM 36.2853 -80.5228 139° Southeast 171 197 7,000  Level Atlanta Center
Sun 02:52:30 PM 36.2467 -80.4858 142° Southeast 177 204 7,000  Level Atlanta Center
Sun 02:53:30 PM 36.2119 -80.4386 132° Southeast 177 204 7,000  Level Atlanta Center
Sun 02:55:00 PM 36.1574 -80.3796 139° Southeast  Level FlightAware Approximate
Sun 03:02:00 PM 35.9024 -80.1054 139° Southeast  Level FlightAware Approximate
Sun 03:03:00 PM 35.8659 -80.0663 139° Southeast  Level FlightAware Approximate
Sun 03:04:00 PM 35.8294 -80.0273 139° Southeast  Level FlightAware Approximate
Sun 03:05:00 PM 35.7929 -79.9884 139° Southeast  Level FlightAware Approximate
Sun 03:06:00 PM 35.7564 -79.9494 139° Southeast  Level FlightAware Approximate
Sun 03:07:00 PM 35.7198 -79.9106 139° Southeast  Level FlightAware Approximate
Sun 03:08:00 PM 35.6833 -79.8717 139° Southeast  Level FlightAware Approximate
Sun 03:09:00 PM 35.6467 -79.8329 139° Southeast  Level FlightAware Approximate
Sun 03:10:00 PM 35.6101 -79.7941 139° Southeast  Level FlightAware Approximate
Sun 03:11:00 PM 35.5729 -79.7563 141° Southeast  Level FlightAware Approximate
Sun 03:12:00 PM 35.5362 -79.7178 137° Southeast  Level FlightAware Approximate
Sun 03:13:00 PM 35.5006 -79.6777 137° Southeast  Level FlightAware Approximate
Sun 03:14:00 PM 35.4650 -79.6376 137° Southeast  Level FlightAware Approximate
Sun 03:15:00 PM 35.4294 -79.5976 138° Southeast  Level FlightAware Approximate
Sun 03:16:00 PM 35.3937 -79.5578 138° Southeast  Level FlightAware Approximate
Sun 03:17:00 PM 35.3579 -79.5180 138° Southeast  Level FlightAware Approximate
Sun 03:18:00 PM 35.3222 -79.4782 138° Southeast  Level FlightAware Approximate
Sun 03:19:00 PM 35.2864 -79.4385 138° Southeast  Level FlightAware Approximate
Sun 03:20:00 PM 35.2499 -79.3999 141° Southeast  Level FlightAware Approximate
Sun 03:21:00 PM 35.2333 -79.3833 141° Southeast  Level FlightAware Approximate
Sun 03:22:00 PM 35.2380 -79.3883 141° Southeast  Level Estimated

Login

Don't have an account? Register now (free) for customized features, flight alerts, and more!